createdAt,value
2022-09-07T00:02:11.995Z,94.50
2022-09-07T00:04:38.913Z,94.60
2022-09-07T00:07:05.705Z,94.60
2022-09-07T00:09:32.634Z,94.50
2022-09-07T00:11:59.466Z,94.50
2022-09-07T00:14:26.344Z,94.40
2022-09-07T00:16:53.194Z,94.40
2022-09-07T00:19:20.043Z,94.30
2022-09-07T00:21:46.953Z,94.20
2022-09-07T00:24:14.730Z,94.30
2022-09-07T00:26:41.660Z,94.40
2022-09-07T00:29:08.559Z,94.30
2022-09-07T00:31:35.669Z,94.30
2022-09-07T00:34:03.007Z,94.30
2022-09-07T00:36:30.378Z,94.50
2022-09-07T00:38:57.726Z,94.50
2022-09-07T00:41:24.655Z,94.60
2022-09-07T00:43:56.046Z,94.50
2022-09-07T00:46:25.847Z,94.40
2022-09-07T00:49:13.041Z,94.40
2022-09-07T00:51:50.246Z,94.50
2022-09-07T00:54:31.809Z,94.70
2022-09-07T00:56:59.057Z,94.80
2022-09-07T00:59:30.327Z,95.00
2022-09-07T01:01:57.376Z,95.20
2022-09-07T01:04:25.015Z,95.30
2022-09-07T01:06:54.026Z,95.40
2022-09-07T01:09:23.649Z,95.50
2022-09-07T01:11:52.476Z,95.60
2022-09-07T01:14:25.215Z,95.70
2022-09-07T01:17:07.354Z,95.70
2022-09-07T01:19:53.009Z,95.70
2022-09-07T01:22:32.285Z,95.70
2022-09-07T01:25:14.477Z,95.70
2022-09-07T01:28:11.998Z,95.70
2022-09-07T01:30:42.288Z,95.70
2022-09-07T01:33:19.292Z,95.70
2022-09-07T01:36:17.686Z,95.70
2022-09-07T01:38:52.550Z,95.70
2022-09-07T01:41:45.602Z,95.70
2022-09-07T01:44:27.167Z,95.70
2022-09-07T01:47:05.313Z,95.70
2022-09-07T01:49:47.723Z,95.70
2022-09-07T01:52:27.592Z,95.70
2022-09-07T01:55:15.616Z,95.70
2022-09-07T01:57:50.328Z,95.70
2022-09-07T02:00:19.279Z,95.70
2022-09-07T02:03:05.009Z,95.70
2022-09-07T02:05:41.843Z,95.70
2022-09-07T02:08:27.536Z,95.70
2022-09-07T02:11:02.488Z,95.70
2022-09-07T02:13:41.222Z,95.70
2022-09-07T02:16:15.789Z,95.70
2022-09-07T02:18:50.169Z,95.70
2022-09-07T02:21:20.655Z,95.70
2022-09-07T02:23:51.762Z,95.70
2022-09-07T02:26:23.807Z,95.70
2022-09-07T02:28:51.010Z,95.70
2022-09-07T02:31:17.947Z,95.70
2022-09-07T02:33:44.930Z,95.70
2022-09-07T02:36:12.716Z,95.70
2022-09-07T02:38:39.831Z,95.70
2022-09-07T02:41:26.579Z,95.70
2022-09-07T02:43:53.563Z,95.70
2022-09-07T02:46:33.106Z,95.70
2022-09-07T02:49:35.952Z,95.70
2022-09-07T02:52:17.996Z,95.70
2022-09-07T02:55:22.839Z,95.70
2022-09-07T02:57:58.628Z,95.70
2022-09-07T03:00:28.305Z,95.70
2022-09-07T03:03:03.558Z,95.70
2022-09-07T03:05:42.412Z,95.70
2022-09-07T03:08:20.089Z,95.70
2022-09-07T03:10:47.766Z,95.70
2022-09-07T03:13:34.969Z,95.70
2022-09-07T03:16:02.094Z,95.70
2022-09-07T03:18:29.260Z,95.70
2022-09-07T03:20:56.367Z,95.70
2022-09-07T03:23:23.530Z,95.70
2022-09-07T03:25:50.663Z,95.70
2022-09-07T03:28:17.589Z,95.70
2022-09-07T03:30:46.229Z,95.70
2022-09-07T03:33:15.837Z,95.70
2022-09-07T03:35:56.379Z,95.70
2022-09-07T03:38:23.197Z,95.70
2022-09-07T03:41:04.924Z,95.70
2022-09-07T03:43:32.161Z,95.70
2022-09-07T03:46:04.797Z,95.70
2022-09-07T03:48:34.672Z,95.70
2022-09-07T03:51:07.218Z,95.70
2022-09-07T03:53:35.620Z,95.70
2022-09-07T03:56:05.751Z,95.70
2022-09-07T03:58:33.894Z,95.70
2022-09-07T04:01:05.303Z,95.70
2022-09-07T04:03:32.306Z,95.70
2022-09-07T04:06:00.150Z,95.70
2022-09-07T04:08:28.728Z,95.70
2022-09-07T04:10:57.471Z,95.70
2022-09-07T04:13:25.969Z,95.70
2022-09-07T04:15:53.979Z,95.70
2022-09-07T04:18:21.509Z,95.70
2022-09-07T04:20:52.730Z,95.70
2022-09-07T04:23:19.690Z,95.70
2022-09-07T04:25:51.201Z,95.70
2022-09-07T04:28:20.120Z,95.70
2022-09-07T04:30:47.390Z,95.70
2022-09-07T04:33:14.700Z,95.70
2022-09-07T04:35:42.548Z,95.70
2022-09-07T04:38:13.599Z,95.70
2022-09-07T04:40:40.457Z,95.70
2022-09-07T04:43:08.354Z,95.70
2022-09-07T04:45:38.545Z,95.70
2022-09-07T04:48:05.782Z,95.70
2022-09-07T04:50:32.985Z,95.70
2022-09-07T04:52:59.830Z,95.70
2022-09-07T04:55:26.713Z,95.70
2022-09-07T04:57:53.550Z,95.70
2022-09-07T05:00:20.555Z,95.70
2022-09-07T05:02:47.739Z,95.70
2022-09-07T05:05:14.910Z,95.70
2022-09-07T05:07:41.810Z,95.70
2022-09-07T05:10:08.921Z,95.70
2022-09-07T05:12:35.871Z,95.70
2022-09-07T05:15:02.941Z,95.70
2022-09-07T05:17:31.124Z,95.70
2022-09-07T05:19:58.325Z,95.70
2022-09-07T05:22:25.272Z,95.70
2022-09-07T05:24:52.151Z,95.70
2022-09-07T05:27:19.148Z,95.70
2022-09-07T05:30:03.736Z,95.70
2022-09-07T05:32:31.931Z,95.70
2022-09-07T05:34:58.836Z,95.70
2022-09-07T05:37:25.654Z,95.70
2022-09-07T05:39:55.066Z,95.70
2022-09-07T05:42:22.744Z,95.70
2022-09-07T05:44:49.669Z,95.70
2022-09-07T05:47:16.556Z,95.70
2022-09-07T05:49:43.395Z,95.70
2022-09-07T05:52:10.366Z,95.60
2022-09-07T05:54:37.431Z,95.50
2022-09-07T05:57:04.816Z,95.40
2022-09-07T05:59:31.656Z,95.30
2022-09-07T06:01:58.644Z,95.40
2022-09-07T06:04:25.668Z,95.30
2022-09-07T06:07:20.103Z,95.30
2022-09-07T06:12:27.848Z,95.30
2022-09-07T06:14:54.819Z,95.10
2022-09-07T06:17:21.723Z,95.10
2022-09-07T06:19:48.809Z,95.00
2022-09-07T06:22:15.651Z,95.00
2022-09-07T06:24:42.550Z,94.90
2022-09-07T06:27:09.471Z,94.80
2022-09-07T06:29:36.375Z,94.90
2022-09-07T06:34:50.385Z,95.40
2022-09-07T06:37:17.227Z,95.00
2022-09-07T06:39:44.147Z,94.90
2022-09-07T06:42:11.074Z,94.50
2022-09-07T06:44:38.022Z,94.00
2022-09-07T06:47:05.308Z,93.60
2022-09-07T06:49:32.198Z,93.20
2022-09-07T06:51:59.063Z,93.40
2022-09-07T06:57:12.816Z,92.90
2022-09-07T06:59:39.771Z,92.90
2022-09-07T07:02:07.244Z,92.50
2022-09-07T07:04:39.540Z,92.20
2022-09-07T07:07:10.721Z,91.70
2022-09-07T07:09:38.242Z,91.50
2022-09-07T07:12:05.241Z,91.30
2022-09-07T07:14:34.603Z,91.50
2022-09-07T07:17:02.536Z,91.60
2022-09-07T07:19:29.527Z,91.60
2022-09-07T07:24:43.206Z,91.70
2022-09-07T07:27:10.120Z,91.30
2022-09-07T07:29:36.993Z,90.80
2022-09-07T07:32:04.369Z,90.50
2022-09-07T07:34:31.296Z,90.90
2022-09-07T07:36:58.174Z,90.60
2022-09-07T07:42:12.530Z,89.80
2022-09-07T07:44:39.488Z,89.60
2022-09-07T07:47:06.436Z,89.30
2022-09-07T07:49:33.246Z,89.20
2022-09-07T07:54:47.083Z,88.20
2022-09-07T07:57:14.123Z,88.40
2022-09-07T07:59:41.101Z,88.20
2022-09-07T08:02:13.701Z,87.90
2022-09-07T08:04:40.675Z,87.90
2022-09-07T08:07:10.949Z,87.60
2022-09-07T08:09:39.786Z,87.60
2022-09-07T08:12:07.071Z,88.00
2022-09-07T08:14:36.592Z,88.20
2022-09-07T08:17:03.411Z,87.80
2022-09-07T08:19:30.275Z,87.00
2022-09-07T08:21:57.127Z,86.00
2022-09-07T08:24:24.137Z,85.90
2022-09-07T08:26:51.354Z,85.90
2022-09-07T08:29:18.272Z,86.60
2022-09-07T08:31:45.181Z,84.90
2022-09-07T08:34:41.205Z,84.60
2022-09-07T08:37:08.174Z,84.40
2022-09-07T08:39:36.012Z,84.30
2022-09-07T08:42:15.555Z,84.40
2022-09-07T08:44:48.853Z,84.00
2022-09-07T08:47:50.446Z,83.90
2022-09-07T08:50:33.617Z,83.70
2022-09-07T08:53:12.731Z,83.30
2022-09-07T08:55:47.346Z,83.80
2022-09-07T08:58:48.216Z,83.90
2022-09-07T09:01:31.540Z,84.20
2022-09-07T09:07:20.888Z,84.40
2022-09-07T09:09:50.296Z,84.30
2022-09-07T09:12:37.567Z,84.20
2022-09-07T09:15:33.146Z,83.80
2022-09-07T09:18:14.597Z,84.60
2022-09-07T09:20:49.218Z,84.80
2022-09-07T09:23:17.841Z,85.00
2022-09-07T09:25:57.248Z,85.30
2022-09-07T09:28:28.977Z,86.00
2022-09-07T09:30:58.590Z,86.00
2022-09-07T09:33:27.539Z,85.10
2022-09-07T09:36:00.498Z,85.40
2022-09-07T09:38:40.199Z,85.30
2022-09-07T09:41:12.050Z,85.70
2022-09-07T09:43:52.807Z,85.50
2022-09-07T09:49:46.480Z,85.20
2022-09-07T09:52:42.962Z,85.70
2022-09-07T09:55:30.600Z,85.70
2022-09-07T10:01:24.013Z,86.80
2022-09-07T10:06:24.348Z,88.30
2022-09-07T10:08:59.301Z,89.00
2022-09-07T10:14:43.338Z,91.00
2022-09-07T10:17:26.676Z,92.00
2022-09-07T10:19:58.298Z,92.80
2022-09-07T10:22:38.355Z,93.40
2022-09-07T10:25:29.504Z,93.60
2022-09-07T10:28:04.292Z,94.00
2022-09-07T10:31:08.012Z,94.60
2022-09-07T10:37:04.682Z,94.80
2022-09-07T10:39:37.428Z,95.10
2022-09-07T10:42:25.825Z,95.50
2022-09-07T10:45:39.034Z,95.70
2022-09-07T10:48:25.493Z,95.70
2022-09-07T10:51:13.788Z,95.70
2022-09-07T10:56:58.003Z,95.70
2022-09-07T11:06:27.561Z,95.70
2022-09-07T11:09:17.820Z,95.70
2022-09-07T11:12:12.033Z,95.70
2022-09-07T11:14:50.308Z,95.70
2022-09-07T11:17:22.958Z,95.70
2022-09-07T11:20:13.807Z,95.70
2022-09-07T11:22:47.503Z,95.70
2022-09-07T11:25:31.873Z,95.70
2022-09-07T11:28:13.103Z,95.70
2022-09-07T11:30:47.879Z,95.70
2022-09-07T11:33:29.419Z,95.70
2022-09-07T11:36:31.467Z,95.70
2022-09-07T11:39:07.713Z,95.70
2022-09-07T11:41:39.657Z,95.70
2022-09-07T11:44:25.866Z,95.70
2022-09-07T11:46:56.314Z,95.70
2022-09-07T11:49:25.965Z,95.70
2022-09-07T11:51:55.446Z,95.70
2022-09-07T11:54:43.602Z,95.70
2022-09-07T11:57:22.972Z,95.70
2022-09-07T12:00:23.567Z,95.20
2022-09-07T12:03:05.484Z,94.90
2022-09-07T12:05:37.926Z,93.20
2022-09-07T12:08:18.318Z,93.10
2022-09-07T12:11:23.180Z,92.20
2022-09-07T12:14:08.941Z,92.50
2022-09-07T12:17:08.127Z,92.40
2022-09-07T12:19:35.025Z,91.10
2022-09-07T12:22:01.979Z,91.20
2022-09-07T12:24:42.543Z,91.10
2022-09-07T12:27:31.967Z,91.30
2022-09-07T12:29:59.554Z,90.60
2022-09-07T12:32:54.541Z,89.30
2022-09-07T12:35:37.176Z,89.30
2022-09-07T12:38:30.307Z,89.30
2022-09-07T12:41:01.073Z,89.50
2022-09-07T12:43:27.790Z,88.80
2022-09-07T12:45:56.709Z,87.60
2022-09-07T12:48:32.487Z,86.70
2022-09-07T12:51:10.994Z,87.30
2022-09-07T12:53:57.851Z,86.80
2022-09-07T12:56:36.759Z,86.10
2022-09-07T12:59:22.333Z,86.30
2022-09-07T13:02:26.940Z,86.60
2022-09-07T13:05:15.557Z,85.80
2022-09-07T13:08:09.297Z,86.30
2022-09-07T13:10:39.453Z,85.30
2022-09-07T13:13:16.126Z,86.00
2022-09-07T13:15:43.047Z,85.90
2022-09-07T13:18:13.941Z,85.10
2022-09-07T13:20:41.714Z,85.40
2022-09-07T13:23:16.642Z,85.60
2022-09-07T13:25:47.003Z,85.40
2022-09-07T13:28:33.235Z,84.60
2022-09-07T13:31:21.882Z,84.00
2022-09-07T13:33:50.590Z,84.00
2022-09-07T13:36:36.941Z,84.30
2022-09-07T13:39:07.674Z,85.00
2022-09-07T13:41:42.428Z,84.80
2022-09-07T13:44:29.731Z,84.70
2022-09-07T13:46:59.663Z,83.90
2022-09-07T13:49:45.265Z,83.70
2022-09-07T13:52:19.002Z,83.60
2022-09-07T13:55:05.053Z,83.40
2022-09-07T13:58:08.687Z,83.40
2022-09-07T14:00:35.673Z,83.60
2022-09-07T14:03:07.416Z,82.50
2022-09-07T14:05:34.232Z,82.60
2022-09-07T14:08:01.016Z,83.30
2022-09-07T14:10:29.167Z,83.10
2022-09-07T14:13:07.130Z,82.80
2022-09-07T14:15:42.158Z,81.70
2022-09-07T14:18:14.524Z,82.10
2022-09-07T14:20:52.936Z,82.40
2022-09-07T14:23:31.467Z,82.30
2022-09-07T14:26:23.090Z,82.60
2022-09-07T14:28:55.835Z,82.80
2022-09-07T14:31:27.077Z,82.10
2022-09-07T14:33:56.995Z,81.80
2022-09-07T14:36:46.085Z,82.00
2022-09-07T14:39:15.456Z,81.50
2022-09-07T14:41:43.419Z,82.00
2022-09-07T14:44:38.721Z,82.20
2022-09-07T14:47:29.294Z,82.10
2022-09-07T14:49:59.767Z,81.90
2022-09-07T14:52:31.466Z,82.10
2022-09-07T14:54:58.529Z,82.50
2022-09-07T14:57:31.678Z,82.70
2022-09-07T15:00:29.373Z,82.80
2022-09-07T15:02:56.469Z,82.30
2022-09-07T15:05:28.347Z,83.00
2022-09-07T15:07:58.312Z,82.10
2022-09-07T15:10:38.305Z,82.30
2022-09-07T15:13:20.526Z,82.50
2022-09-07T15:15:57.185Z,81.90
2022-09-07T15:18:45.546Z,82.30
2022-09-07T15:21:12.382Z,82.30
2022-09-07T15:23:39.848Z,81.50
2022-09-07T15:26:08.997Z,82.20
2022-09-07T15:31:54.302Z,82.20
2022-09-07T15:34:18.208Z,82.40
2022-09-07T15:36:53.597Z,82.90
2022-09-07T15:39:26.640Z,83.50
2022-09-07T15:41:53.750Z,83.50
2022-09-07T15:44:25.287Z,83.60
2022-09-07T15:49:47.412Z,84.00
2022-09-07T15:52:17.204Z,84.20
2022-09-07T15:54:44.451Z,83.90
2022-09-07T15:59:58.713Z,84.20
2022-09-07T16:10:53.944Z,84.90
2022-09-07T16:13:23.814Z,85.40
2022-09-07T16:15:50.628Z,85.30
2022-09-07T16:18:20.409Z,85.30
2022-09-07T16:21:28.410Z,85.40
2022-09-07T16:23:55.594Z,85.60
2022-09-07T16:26:24.584Z,86.00
2022-09-07T16:28:52.922Z,86.00
2022-09-07T16:31:26.392Z,86.10
2022-09-07T16:34:13.299Z,86.40
2022-09-07T16:36:41.286Z,86.50
2022-09-07T16:39:08.782Z,86.80
2022-09-07T16:41:35.753Z,86.80
2022-09-07T16:44:02.858Z,87.10
2022-09-07T16:46:42.966Z,87.10
2022-09-07T16:49:11.022Z,87.50
2022-09-07T16:51:39.672Z,87.80
2022-09-07T16:54:07.045Z,88.20
2022-09-07T16:56:38.768Z,88.50
2022-09-07T16:59:07.061Z,88.90
2022-09-07T17:01:35.623Z,89.10
2022-09-07T17:04:07.997Z,89.30
2022-09-07T17:06:37.851Z,89.60
2022-09-07T17:09:05.434Z,89.80
2022-09-07T17:11:34.617Z,90.00
2022-09-07T17:14:01.767Z,90.10
2022-09-07T17:16:34.197Z,90.00
2022-09-07T17:21:51.762Z,90.10
2022-09-07T17:24:19.688Z,90.20
2022-09-07T17:26:46.725Z,90.20
2022-09-07T17:29:14.628Z,90.50
2022-09-07T17:34:32.226Z,91.00
2022-09-07T17:37:00.513Z,91.10
2022-09-07T17:39:28.159Z,91.40
2022-09-07T17:41:55.078Z,91.60
2022-09-07T17:44:23.257Z,91.90
2022-09-07T17:46:50.673Z,92.00
2022-09-07T17:49:17.851Z,92.30
2022-09-07T17:51:45.696Z,92.50
2022-09-07T17:54:14.962Z,92.70
2022-09-07T17:56:42.332Z,92.90
2022-09-07T18:01:56.654Z,93.40
2022-09-07T18:04:23.509Z,93.60
2022-09-07T18:06:51.023Z,93.80
2022-09-07T18:09:19.573Z,94.00
2022-09-07T18:11:48.023Z,94.20
2022-09-07T18:14:16.674Z,94.30
2022-09-07T18:16:44.955Z,94.40
2022-09-07T18:19:12.133Z,94.60
2022-09-07T18:21:43.290Z,94.80
2022-09-07T18:24:19.483Z,94.90
2022-09-07T18:26:51.963Z,95.10
2022-09-07T18:29:31.371Z,95.30
2022-09-07T18:32:01.475Z,95.40
2022-09-07T18:34:34.536Z,95.60
2022-09-07T18:37:01.589Z,95.70
2022-09-07T18:39:29.086Z,95.70
2022-09-07T18:41:56.219Z,95.70
2022-09-07T18:47:21.118Z,95.70
2022-09-07T18:49:50.225Z,95.70
2022-09-07T18:55:06.999Z,95.70
2022-09-07T18:57:34.260Z,95.70
2022-09-07T19:00:01.113Z,95.70
2022-09-07T19:02:27.986Z,95.70
2022-09-07T19:07:41.597Z,95.70
2022-09-07T19:10:08.777Z,95.70
2022-09-07T19:12:36.235Z,95.70
2022-09-07T19:15:03.901Z,95.70
2022-09-07T19:17:31.624Z,95.70
2022-09-07T19:19:58.449Z,95.70
2022-09-07T19:22:27.234Z,95.70
2022-09-07T19:24:54.361Z,95.70
2022-09-07T19:27:21.245Z,95.70
2022-09-07T19:29:49.581Z,95.70
2022-09-07T19:32:17.111Z,95.70
2022-09-07T19:34:45.505Z,95.70
2022-09-07T19:37:13.391Z,95.70
2022-09-07T19:39:40.190Z,95.70
2022-09-07T19:42:07.154Z,95.70
2022-09-07T19:44:34.039Z,95.70
2022-09-07T19:47:01.188Z,95.70
2022-09-07T19:49:28.611Z,95.70
2022-09-07T19:51:55.791Z,95.70
2022-09-07T19:54:22.656Z,95.70
2022-09-07T19:57:16.080Z,95.70
2022-09-07T20:00:31.348Z,95.70
2022-09-07T20:03:02.356Z,95.70
2022-09-07T20:05:32.069Z,95.70
2022-09-07T20:07:58.944Z,95.70
2022-09-07T20:10:32.336Z,95.70
2022-09-07T20:12:59.241Z,95.70
2022-09-07T20:15:27.297Z,95.70
2022-09-07T20:17:55.226Z,95.70
2022-09-07T20:20:23.307Z,95.70
2022-09-07T20:22:50.811Z,95.70
2022-09-07T20:25:17.777Z,95.70
2022-09-07T20:27:44.632Z,95.70
2022-09-07T20:30:11.885Z,95.70
2022-09-07T20:32:38.983Z,95.70
2022-09-07T20:35:06.546Z,95.70
2022-09-07T20:37:34.288Z,95.70
2022-09-07T20:40:01.254Z,95.70
2022-09-07T20:42:28.148Z,95.70
2022-09-07T20:44:55.171Z,95.70
2022-09-07T20:47:22.113Z,95.70
2022-09-07T20:49:48.900Z,95.70
2022-09-07T20:52:16.004Z,95.70
2022-09-07T20:54:43.213Z,95.70
2022-09-07T20:57:10.340Z,95.70
2022-09-07T20:59:37.117Z,95.70
2022-09-07T21:02:04.085Z,95.70
2022-09-07T21:04:30.936Z,95.70
2022-09-07T21:06:57.712Z,95.70
2022-09-07T21:09:24.487Z,95.70
2022-09-07T21:11:55.100Z,95.70
2022-09-07T21:14:23.752Z,95.70
2022-09-07T21:16:50.514Z,95.70
2022-09-07T21:19:17.384Z,95.70
2022-09-07T21:21:44.092Z,95.70
2022-09-07T21:24:20.146Z,95.70
2022-09-07T21:26:47.346Z,95.70
2022-09-07T21:29:24.614Z,95.70
2022-09-07T21:31:54.981Z,95.70
2022-09-07T21:34:22.437Z,95.70
2022-09-07T21:36:51.155Z,95.70
2022-09-07T21:39:18.324Z,95.70
2022-09-07T21:41:45.257Z,95.70
2022-09-07T21:44:13.975Z,95.70
2022-09-07T21:46:41.767Z,95.70
2022-09-07T21:49:08.669Z,95.70
2022-09-07T21:51:35.619Z,95.70
2022-09-07T21:54:02.369Z,95.70
2022-09-07T21:56:29.979Z,95.70
2022-09-07T21:58:58.859Z,95.70
2022-09-07T22:01:26.889Z,95.70
2022-09-07T22:03:58.854Z,95.70
2022-09-07T22:06:30.056Z,95.70
2022-09-07T22:08:56.855Z,95.70
2022-09-07T22:11:25.227Z,95.70
2022-09-07T22:14:01.533Z,95.70
2022-09-07T22:16:29.077Z,95.70
2022-09-07T22:18:56.036Z,95.70
2022-09-07T22:21:25.411Z,95.70
2022-09-07T22:23:55.783Z,95.70
2022-09-07T22:26:24.062Z,95.70
2022-09-07T22:28:51.279Z,95.70
2022-09-07T22:31:29.703Z,95.70
2022-09-07T22:33:57.444Z,95.70
2022-09-07T22:36:29.886Z,95.70
2022-09-07T22:38:58.187Z,95.70
2022-09-07T22:41:27.810Z,95.70
2022-09-07T22:43:54.838Z,95.70
2022-09-07T22:46:23.159Z,95.70
2022-09-07T22:48:50.193Z,95.70
2022-09-07T22:51:16.970Z,95.70
2022-09-07T22:53:44.243Z,95.70
2022-09-07T22:56:16.558Z,95.70
2022-09-07T22:58:48.573Z,95.70
2022-09-07T23:01:15.903Z,95.70
2022-09-07T23:03:43.626Z,95.70
2022-09-07T23:06:31.251Z,95.70
2022-09-07T23:08:59.560Z,95.70
2022-09-07T23:11:26.690Z,95.70
2022-09-07T23:13:55.798Z,95.70
2022-09-07T23:16:22.967Z,95.70
2022-09-07T23:18:49.845Z,95.70
2022-09-07T23:21:16.954Z,95.70
2022-09-07T23:23:43.934Z,95.70
2022-09-07T23:26:10.769Z,95.70
2022-09-07T23:28:37.513Z,95.70
2022-09-07T23:31:04.306Z,95.70
2022-09-07T23:33:31.236Z,95.70
2022-09-07T23:36:03.864Z,95.70
2022-09-07T23:38:31.140Z,95.70
2022-09-07T23:40:59.521Z,95.70
2022-09-07T23:43:27.743Z,95.70
2022-09-07T23:45:55.239Z,95.70
2022-09-07T23:48:23.048Z,95.70
2022-09-07T23:50:50.219Z,95.70
2022-09-07T23:53:17.894Z,95.70
2022-09-07T23:55:45.904Z,95.70
2022-09-07T23:58:12.769Z,95.70
